Time;durP1;ratioP1;P1;durP2;ratioP2;P2;SDS_P1;SDS_P2;PMS_P1;PMS_P2;Temp;Humidity;BMP_temperature;BMP_pressure;BME280_temperature;BME280_humidity;BME280_pressure;Samples;Min_cycle;Max_cycle;Signal;HPM_P1;HPM_P2
2022/10/11 00:27:01;;;;;;;14.87;9.10;;;8.00;99.90;;;;;;4672610;30;20232;-84
2022/10/11 00:57:24;;;;;;;14.93;9.77;;;7.20;99.90;;;;;;4609377;30;20220;-85
2022/10/11 01:37:28;;;;;;;18.40;11.40;;;6.30;99.90;;;;;;4526204;30;20567;-85
2022/10/11 02:03:15;;;;;;;18.10;11.07;;;6.40;99.90;;;;;;4512630;30;20493;-84
2022/10/11 02:43:40;;;;;;;16.77;11.77;;;6.90;99.90;;;;;;4445740;31;20428;-84
2022/10/11 03:04:11;;;;;;;18.73;12.33;;;7.20;99.90;;;;;;4486208;30;20228;-84
2022/10/11 03:39:44;;;;;;;16.17;11.13;;;7.00;99.90;;;;;;4573553;30;20250;-84
2022/10/11 04:10:05;;;;;;;14.63;10.97;;;7.20;99.90;;;;;;4542042;30;20226;-85
2022/10/11 04:39:59;;;;;;;19.97;12.80;;;6.90;99.90;;;;;;4496540;30;20651;-84
2022/10/11 06:00:11;;;;;;;31.27;18.47;;;6.30;99.90;;;;;;6224017;22;20781;-84
2022/10/11 06:04:36;;;;;;;28.53;19.70;;;6.50;99.90;;;;;;6103762;23;21185;-85
2022/10/11 06:50:37;;;;;;;30.00;21.00;;;11.20;99.90;;;;;;5596454;24;20677;-79
2022/10/11 06:55:14;;;;;;;28.70;19.17;;;11.60;99.90;;;;;;5562275;24;20839;-77
2022/10/11 07:21:09;;;;;;;20.30;16.77;;;12.70;95.30;;;;;;5533658;24;20955;-83
2022/10/11 08:06:15;;;;;;;17.00;15.17;;;13.10;94.20;;;;;;5900115;23;21155;-80
2022/10/11 08:32:11;;;;;;;15.57;12.30;;;13.90;92.30;;;;;;5744659;23;20245;-80
2022/10/11 09:02:45;;;;;;;14.93;11.87;;;13.50;92.20;;;;;;5697066;23;20679;-79
2022/10/11 09:07:06;;;;;;;17.50;12.13;;;13.70;92.50;;;;;;5516195;24;21215;-78
2022/10/11 09:37:53;;;;;;;13.63;9.20;;;14.60;90.00;;;;;;5655907;24;20854;-79
2022/10/11 10:23:45;;;;;;;7.83;6.57;;;15.00;88.30;;;;;;5662580;24;20558;-80
2022/10/11 10:48:58;;;;;;;7.77;4.57;;;14.50;86.50;;;;;;5559181;24;20789;-82
2022/10/11 11:19:25;;;;;;;4.53;2.77;;;13.90;84.80;;;;;;5429014;24;20590;-79
2022/10/11 11:49:38;;;;;;;4.07;2.37;;;14.90;81.30;;;;;;5813810;23;20762;-84
2022/10/11 13:26:31;;;;;;;4.93;2.73;;;14.90;76.50;;;;;;5950404;23;20265;-81
2022/10/11 13:30:51;;;;;;;5.40;2.20;;;15.00;76.20;;;;;;5903700;23;20597;-82
2022/10/11 14:02:00;;;;;;;5.50;2.13;;;14.30;77.20;;;;;;6087347;23;20192;-83
2022/10/11 14:26:44;;;;;;;7.37;2.50;;;14.10;78.00;;;;;;5881879;23;20569;-85
2022/10/11 14:57:22;;;;;;;6.53;2.70;;;13.50;79.20;;;;;;5901248;23;20466;-87
2022/10/11 15:32:50;;;;;;;7.27;3.10;;;12.50;81.90;;;;;;5888161;24;20377;-88
2022/10/11 15:58:36;;;;;;;5.40;2.60;;;11.90;84.00;;;;;;5806165;24;20371;-88
2022/10/11 17:29:48;;;;;;;11.33;6.13;;;8.90;98.90;;;;;;5731366;24;20434;-85
2022/10/11 18:05:29;;;;;;;13.07;7.97;;;8.90;96.90;;;;;;5872416;23;20204;-86
2022/10/11 19:00:29;;;;;;;16.70;8.93;;;8.10;99.90;;;;;;5944489;23;20449;-84
2022/10/11 19:21:14;;;;;;;16.67;10.33;;;8.00;99.90;;;;;;5716168;24;20486;-87
2022/10/11 20:17:06;;;;;;;28.27;16.63;;;6.70;99.90;;;;;;6005405;23;20178;-87
2022/10/11 21:22:55;;;;;;;31.27;19.20;;;6.40;99.90;;;;;;6160547;22;20663;-87
2022/10/11 21:42:34;;;;;;;39.77;22.17;;;6.10;99.90;;;;;;5988821;23;20182;-87
2022/10/11 22:08:25;;;;;;;44.70;24.87;;;6.20;99.90;;;;;;5881071;23;20280;-85
2022/10/11 22:48:26;;;;;;;38.73;25.83;;;6.20;99.90;;;;;;6196829;22;20718;-87
2022/10/11 23:18:52;;;;;;;45.50;28.00;;;5.60;99.90;;;;;;5806040;24;20181;-85
2022/10/11 23:49:19;;;;;;;41.73;28.47;;;5.50;99.90;;;;;;5791236;24;20414;-86
